Time;durP1;ratioP1;P1;durP2;ratioP2;P2;SDS_P1;SDS_P2;PMS_P1;PMS_P2;Temp;Humidity;BMP_temperature;BMP_pressure;BME280_temperature;BME280_humidity;BME280_pressure;Samples;Min_cycle;Max_cycle;Signal;HPM_P1;HPM_P2
2023/11/12 00:01:50;;;;;;;16.45;10.85;;;5.10;99.90;;;;;;5069527;28;20043;-69
2023/11/12 00:04:18;;;;;;;14.48;11.38;;;5.10;99.90;;;;;;5056777;28;20082;-69
2023/11/12 00:06:43;;;;;;;19.85;13.18;;;5.10;99.90;;;;;;5069055;28;20119;-69
2023/11/12 00:09:10;;;;;;;16.85;11.95;;;5.10;99.90;;;;;;5064643;28;20198;-69
2023/11/12 00:11:38;;;;;;;14.60;12.25;;;5.00;99.90;;;;;;5066074;28;20049;-69
2023/11/12 00:14:04;;;;;;;14.18;11.15;;;5.10;99.90;;;;;;5066670;28;20048;-69
2023/11/12 00:16:30;;;;;;;12.35;11.05;;;5.10;99.90;;;;;;5066114;28;20506;-69
2023/11/12 00:18:56;;;;;;;14.15;10.48;;;5.10;99.90;;;;;;5064972;28;20123;-69
2023/11/12 00:21:23;;;;;;;13.60;10.52;;;5.00;99.90;;;;;;5069599;28;20219;-69
2023/11/12 00:23:49;;;;;;;14.23;9.75;;;5.10;99.90;;;;;;5062196;28;20040;-69
2023/11/12 00:26:15;;;;;;;12.52;9.25;;;5.10;99.90;;;;;;5062908;28;20056;-69
2023/11/12 00:28:41;;;;;;;13.73;9.73;;;5.10;99.90;;;;;;5066551;28;20056;-69
2023/11/12 00:31:06;;;;;;;11.15;10.15;;;5.00;99.90;;;;;;5065892;28;20398;-69
2023/11/12 00:33:32;;;;;;;11.73;9.30;;;5.00;99.90;;;;;;5069019;28;20040;-69
2023/11/12 00:35:58;;;;;;;10.75;9.73;;;5.00;99.90;;;;;;5062033;28;20558;-69
2023/11/12 00:38:24;;;;;;;19.50;10.88;;;5.00;99.90;;;;;;5065624;28;20048;-69
2023/11/12 00:40:49;;;;;;;9.95;8.95;;;4.90;99.90;;;;;;5069171;28;20124;-69
2023/11/12 00:43:15;;;;;;;9.30;8.50;;;4.90;99.90;;;;;;5064997;28;20040;-69
2023/11/12 00:45:41;;;;;;;8.63;7.82;;;4.90;99.90;;;;;;5094099;28;20250;-69
2023/11/12 00:48:08;;;;;;;9.32;7.88;;;4.80;99.90;;;;;;5068183;28;20045;-69
2023/11/12 00:50:34;;;;;;;10.32;8.88;;;4.80;99.90;;;;;;5097523;28;20079;-69
2023/11/12 00:53:00;;;;;;;9.85;8.85;;;4.80;99.90;;;;;;5098911;28;20041;-69
2023/11/12 00:55:25;;;;;;;10.98;9.88;;;4.80;99.90;;;;;;5068282;28;20535;-69
2023/11/12 00:57:51;;;;;;;11.25;9.10;;;4.80;99.90;;;;;;5063561;28;20044;-69
2023/11/12 01:00:17;;;;;;;12.65;9.85;;;4.80;99.90;;;;;;5066120;28;20035;-69
2023/11/12 01:02:43;;;;;;;11.23;10.00;;;4.90;99.90;;;;;;5068249;28;20040;-69
2023/11/12 01:05:08;;;;;;;13.85;10.40;;;4.90;99.90;;;;;;5065573;28;20383;-69
2023/11/12 01:07:36;;;;;;;15.05;10.32;;;4.90;99.90;;;;;;5066982;28;20036;-69
2023/11/12 01:10:02;;;;;;;14.38;9.80;;;4.80;99.90;;;;;;5070516;28;20133;-69
2023/11/12 01:12:28;;;;;;;13.57;11.15;;;4.90;99.90;;;;;;5069700;28;20052;-69
2023/11/12 01:14:53;;;;;;;14.93;10.70;;;4.80;99.90;;;;;;5069579;28;20539;-69
2023/11/12 01:17:19;;;;;;;10.52;9.30;;;4.90;99.90;;;;;;5067875;28;20032;-69
2023/11/12 01:19:46;;;;;;;11.38;8.88;;;5.00;99.90;;;;;;5066092;28;20040;-69
2023/11/12 01:22:12;;;;;;;12.15;10.93;;;4.80;99.90;;;;;;5071110;28;20106;-69
2023/11/12 01:24:37;;;;;;;12.50;11.25;;;4.90;99.90;;;;;;5068397;28;20036;-69
2023/11/12 01:27:04;;;;;;;12.93;10.90;;;4.90;99.90;;;;;;5067173;28;20049;-69
2023/11/12 01:29:30;;;;;;;13.80;11.50;;;4.90;99.90;;;;;;5067972;28;20533;-69
2023/11/12 01:31:56;;;;;;;12.95;11.10;;;4.90;99.90;;;;;;5069215;28;20048;-69
2023/11/12 01:34:22;;;;;;;16.30;12.52;;;4.90;99.90;;;;;;5068657;28;20052;-69
2023/11/12 01:36:48;;;;;;;13.65;11.90;;;5.00;99.90;;;;;;5069127;28;20124;-69
2023/11/12 01:39:14;;;;;;;14.25;12.30;;;5.00;99.90;;;;;;5101253;27;20119;-69
2023/11/12 01:41:39;;;;;;;15.77;12.77;;;5.00;99.90;;;;;;5070111;28;20037;-69
2023/11/12 01:44:05;;;;;;;12.30;11.13;;;5.00;99.90;;;;;;5068945;28;20505;-69
2023/11/12 01:46:31;;;;;;;14.73;13.13;;;5.00;99.90;;;;;;5064989;28;20131;-69
2023/11/12 01:48:58;;;;;;;13.25;11.85;;;5.00;99.90;;;;;;5066210;28;20040;-69
2023/11/12 01:51:26;;;;;;;14.55;12.95;;;5.10;99.90;;;;;;5067922;28;20045;-69
2023/11/12 01:53:53;;;;;;;18.80;13.70;;;5.10;99.90;;;;;;5067278;28;20048;-69
2023/11/12 01:56:20;;;;;;;15.82;13.60;;;5.10;99.90;;;;;;5068617;28;20044;-69
2023/11/12 01:58:51;;;;;;;14.90;13.30;;;5.00;99.90;;;;;;5064195;28;20044;-69
2023/11/12 02:01:17;;;;;;;15.70;13.75;;;5.00;99.90;;;;;;5067879;28;20095;-69
2023/11/12 02:03:43;;;;;;;15.05;13.55;;;5.00;99.90;;;;;;5067251;28;20040;-69
2023/11/12 02:06:12;;;;;;;15.40;13.80;;;5.00;99.90;;;;;;5067072;28;20383;-69
2023/11/12 02:08:41;;;;;;;16.63;13.40;;;5.00;99.90;;;;;;5066995;28;20076;-69
2023/11/12 02:11:08;;;;;;;17.38;14.40;;;5.00;99.90;;;;;;5068394;28;20434;-69
2023/11/12 02:13:36;;;;;;;12.63;10.90;;;5.00;99.90;;;;;;5098770;27;20049;-69
2023/11/12 02:16:02;;;;;;;17.17;12.32;;;4.90;99.90;;;;;;5069993;28;20048;-69
2023/11/12 02:18:28;;;;;;;15.27;13.68;;;4.90;99.90;;;;;;5064130;28;20040;-69
2023/11/12 02:20:53;;;;;;;18.17;14.93;;;4.90;99.90;;;;;;5069629;28;20028;-69
2023/11/12 02:23:19;;;;;;;19.27;13.98;;;4.90;99.90;;;;;;5068354;28;20123;-69
2023/11/12 02:25:46;;;;;;;33.08;15.07;;;4.80;99.90;;;;;;5066524;28;20375;-69
2023/11/12 02:28:14;;;;;;;28.65;13.88;;;4.80;99.90;;;;;;5067569;28;20163;-69
2023/11/12 02:30:41;;;;;;;36.50;12.25;;;4.80;99.90;;;;;;5066459;28;20036;-69
2023/11/12 02:33:07;;;;;;;37.85;12.25;;;4.80;99.90;;;;;;5067442;28;20068;-69
2023/11/12 02:35:35;;;;;;;24.00;11.77;;;4.80;99.90;;;;;;5066343;28;20040;-69
2023/11/12 02:38:01;;;;;;;21.40;11.68;;;4.70;99.90;;;;;;5061333;28;20049;-69
2023/11/12 02:40:26;;;;;;;12.57;11.35;;;4.70;99.90;;;;;;5068829;28;20040;-69
2023/11/12 02:42:52;;;;;;;12.18;10.85;;;4.70;99.90;;;;;;5066724;28;20071;-69
2023/11/12 02:45:18;;;;;;;11.90;10.50;;;4.70;99.90;;;;;;5067109;28;20231;-69
2023/11/12 02:47:44;;;;;;;11.10;10.00;;;4.70;99.90;;;;;;5066909;28;20478;-69
2023/11/12 02:50:32;;;;;;;11.35;10.30;;;4.70;99.90;;;;;;5066667;28;20043;-69
2023/11/12 02:53:00;;;;;;;13.40;12.02;;;4.70;99.90;;;;;;5066397;28;20040;-69
2023/11/12 02:55:30;;;;;;;13.50;10.75;;;4.70;99.90;;;;;;5065811;28;20047;-69
2023/11/12 02:57:56;;;;;;;14.80;11.63;;;4.70;99.90;;;;;;5067855;28;20040;-69
2023/11/12 03:00:27;;;;;;;13.85;10.18;;;4.80;99.90;;;;;;5064168;28;20478;-69
2023/11/12 03:02:53;;;;;;;11.73;10.52;;;4.70;99.90;;;;;;5066925;28;20129;-69
2023/11/12 03:05:20;;;;;;;13.43;12.02;;;4.70;99.90;;;;;;5065411;28;20051;-69
2023/11/12 03:07:45;;;;;;;13.00;11.23;;;4.70;99.90;;;;;;5064225;28;20119;-69
2023/11/12 03:10:11;;;;;;;19.50;12.38;;;4.70;99.90;;;;;;5065904;28;20179;-69
2023/11/12 03:12:38;;;;;;;12.63;11.43;;;4.70;99.90;;;;;;5068848;28;21543;-69
2023/11/12 03:15:06;;;;;;;13.02;11.75;;;4.70;99.90;;;;;;5067358;28;20047;-69
2023/11/12 03:17:33;;;;;;;13.27;11.98;;;4.80;99.90;;;;;;5066473;28;20047;-69
2023/11/12 03:19:59;;;;;;;11.70;10.45;;;4.70;99.90;;;;;;5096327;28;20483;-69
2023/11/12 03:22:25;;;;;;;14.15;11.30;;;4.70;99.90;;;;;;5065174;28;20039;-69
2023/11/12 03:24:50;;;;;;;9.45;8.18;;;4.70;99.90;;;;;;5064041;28;20502;-69
2023/11/12 03:27:17;;;;;;;8.10;6.90;;;4.70;99.90;;;;;;5067701;28;20036;-69
2023/11/12 03:29:42;;;;;;;10.77;9.48;;;4.60;99.90;;;;;;5061282;28;20040;-69
2023/11/12 03:32:08;;;;;;;25.13;10.93;;;4.60;99.90;;;;;;5066192;28;21052;-69
2023/11/12 03:34:33;;;;;;;16.77;11.00;;;4.60;99.90;;;;;;5065180;28;20459;-69
2023/11/12 03:36:59;;;;;;;23.50;13.13;;;4.70;99.90;;;;;;5065581;28;20037;-69
2023/11/12 03:39:25;;;;;;;34.83;11.93;;;4.70;99.90;;;;;;5066661;28;20171;-69
2023/11/12 03:41:51;;;;;;;27.90;12.52;;;4.70;99.90;;;;;;5066162;28;20035;-69
2023/11/12 03:44:16;;;;;;;32.63;12.32;;;4.70;99.90;;;;;;5062365;28;20210;-69
2023/11/12 03:46:42;;;;;;;15.70;12.18;;;4.70;99.90;;;;;;5066298;28;20052;-69
2023/11/12 03:49:07;;;;;;;16.55;12.20;;;4.70;99.90;;;;;;5065490;28;20406;-69
2023/11/12 03:51:33;;;;;;;18.20;13.10;;;4.70;99.90;;;;;;5066675;28;20044;-69
2023/11/12 03:54:02;;;;;;;22.20;12.02;;;4.70;99.90;;;;;;5064796;28;20380;-69
2023/11/12 03:56:29;;;;;;;29.10;12.27;;;4.70;99.90;;;;;;5063891;28;20127;-69
2023/11/12 03:58:56;;;;;;;24.75;13.48;;;4.70;99.90;;;;;;5094736;28;20044;-69
2023/11/12 04:01:22;;;;;;;50.08;13.63;;;4.70;99.90;;;;;;5068625;28;20037;-69
2023/11/12 04:03:49;;;;;;;34.22;13.32;;;4.70;99.90;;;;;;5062513;28;20467;-69
2023/11/12 04:06:16;;;;;;;35.47;12.82;;;4.70;99.90;;;;;;5065884;28;20070;-68
2023/11/12 04:08:41;;;;;;;81.80;15.23;;;4.70;99.90;;;;;;5065970;28;20048;-69
2023/11/12 04:11:07;;;;;;;103.18;17.13;;;4.70;99.90;;;;;;5066392;28;20049;-69
2023/11/12 04:13:32;;;;;;;88.53;15.82;;;4.80;99.90;;;;;;5095398;28;20048;-69
2023/11/12 04:15:58;;;;;;;90.55;14.20;;;4.80;99.90;;;;;;5065579;28;20128;-69
2023/11/12 04:18:23;;;;;;;116.53;14.23;;;4.70;99.90;;;;;;5067415;28;20571;-69
2023/11/12 04:20:49;;;;;;;93.45;15.73;;;4.70;99.90;;;;;;5067650;28;20036;-69
2023/11/12 04:23:15;;;;;;;66.55;13.80;;;4.70;99.90;;;;;;5063946;28;20566;-69
2023/11/12 04:25:41;;;;;;;61.72;13.13;;;4.70;99.90;;;;;;5064336;28;20048;-69
2023/11/12 04:28:07;;;;;;;73.85;14.57;;;4.70;99.90;;;;;;5066127;28;20076;-69
2023/11/12 04:30:33;;;;;;;55.55;13.50;;;4.70;99.90;;;;;;5069212;28;20113;-69
2023/11/12 04:32:59;;;;;;;35.28;12.98;;;4.70;99.90;;;;;;5063638;28;20102;-69
2023/11/12 04:35:26;;;;;;;50.25;13.95;;;4.70;99.90;;;;;;5070147;28;20481;-69
2023/11/12 04:37:51;;;;;;;56.08;13.90;;;4.60;99.90;;;;;;5068989;28;20052;-69
2023/11/12 04:40:17;;;;;;;55.05;12.93;;;4.70;99.90;;;;;;5071728;28;20050;-69
2023/11/12 04:42:43;;;;;;;59.45;14.02;;;4.60;99.90;;;;;;5065106;28;20035;-69
2023/11/12 04:45:09;;;;;;;58.00;13.30;;;4.60;99.90;;;;;;5100976;27;20068;-69
2023/11/12 04:47:35;;;;;;;42.35;13.23;;;4.60;99.90;;;;;;5068650;28;20109;-69
2023/11/12 04:50:01;;;;;;;67.30;13.45;;;4.60;99.90;;;;;;5100379;27;20072;-70
2023/11/12 04:52:26;;;;;;;61.72;14.60;;;4.60;99.90;;;;;;5068151;28;20094;-69
2023/11/12 04:54:52;;;;;;;48.05;12.82;;;4.50;99.90;;;;;;5065134;28;20276;-69
2023/11/12 04:57:18;;;;;;;39.83;11.98;;;4.40;99.90;;;;;;5070256;28;20052;-69
2023/11/12 04:59:44;;;;;;;36.70;12.55;;;4.40;99.90;;;;;;5067595;28;20124;-69
2023/11/12 05:02:13;;;;;;;32.40;12.27;;;4.40;99.90;;;;;;5098787;28;20047;-69
2023/11/12 05:04:40;;;;;;;32.67;11.57;;;4.30;99.90;;;;;;5065635;28;20040;-69
2023/11/12 05:07:06;;;;;;;21.73;12.20;;;4.40;99.90;;;;;;5069330;28;20036;-69
2023/11/12 05:09:32;;;;;;;36.15;12.98;;;4.30;99.90;;;;;;5066984;28;20131;-69
2023/11/12 05:11:58;;;;;;;38.00;12.80;;;4.30;99.90;;;;;;5068927;28;20513;-69
2023/11/12 05:14:27;;;;;;;37.38;12.05;;;4.30;99.90;;;;;;5065495;28;20037;-69
2023/11/12 05:16:53;;;;;;;55.38;13.20;;;4.30;99.90;;;;;;5069317;28;20048;-69
2023/11/12 05:19:18;;;;;;;33.63;12.50;;;4.30;99.90;;;;;;5067700;28;20040;-69
2023/11/12 05:21:47;;;;;;;45.60;11.82;;;4.30;99.90;;;;;;5069319;28;20033;-69
2023/11/12 05:24:13;;;;;;;51.15;13.15;;;4.30;99.90;;;;;;5067954;28;20054;-69
2023/11/12 05:26:42;;;;;;;24.70;12.07;;;4.30;99.90;;;;;;5067673;28;20040;-69
2023/11/12 05:29:07;;;;;;;22.88;12.90;;;4.40;99.90;;;;;;5069291;28;20051;-69
2023/11/12 05:31:34;;;;;;;55.95;15.15;;;4.40;99.90;;;;;;5071537;28;20032;-69
2023/11/12 05:34:00;;;;;;;51.88;15.73;;;4.40;99.90;;;;;;5065795;28;20394;-69
2023/11/12 05:36:26;;;;;;;96.57;16.02;;;4.40;99.90;;;;;;5064264;28;20589;-69
2023/11/12 05:38:51;;;;;;;58.10;15.25;;;4.50;99.90;;;;;;5066946;28;20127;-69
2023/11/12 05:41:17;;;;;;;70.13;15.07;;;4.50;99.90;;;;;;5069755;28;20040;-69
2023/11/12 05:43:43;;;;;;;36.97;14.68;;;4.50;99.90;;;;;;5081274;28;20467;-69
2023/11/12 05:46:08;;;;;;;25.75;13.57;;;4.50;99.90;;;;;;5067008;28;20032;-69
2023/11/12 05:48:35;;;;;;;26.60;13.63;;;4.60;99.90;;;;;;5068134;28;20037;-69
2023/11/12 05:51:00;;;;;;;37.53;13.98;;;4.60;99.90;;;;;;5070935;28;20441;-69
2023/11/12 05:53:26;;;;;;;21.35;14.05;;;4.60;99.90;;;;;;5067988;28;20043;-69
2023/11/12 05:55:52;;;;;;;44.72;15.85;;;4.60;99.90;;;;;;5069900;28;20498;-69
2023/11/12 05:58:17;;;;;;;23.75;13.30;;;4.70;99.90;;;;;;5066633;28;20044;-69
2023/11/12 06:00:43;;;;;;;41.53;14.15;;;4.70;99.90;;;;;;5068126;28;20036;-69
2023/11/12 06:03:09;;;;;;;37.75;12.63;;;4.70;99.90;;;;;;5068733;28;20113;-69
2023/11/12 06:05:34;;;;;;;60.40;13.48;;;4.70;99.90;;;;;;5068451;28;20075;-69
2023/11/12 06:08:03;;;;;;;66.57;14.15;;;4.70;99.90;;;;;;5066032;28;20037;-69
2023/11/12 06:10:29;;;;;;;34.78;12.77;;;4.70;99.90;;;;;;5069793;28;20074;-69
2023/11/12 06:12:55;;;;;;;33.35;13.10;;;4.60;99.90;;;;;;5067330;28;20032;-69
2023/11/12 06:15:25;;;;;;;59.85;14.05;;;4.60;99.90;;;;;;5067120;28;20149;-69
2023/11/12 06:17:52;;;;;;;66.72;12.40;;;4.60;99.90;;;;;;5067709;28;20052;-69
2023/11/12 06:20:18;;;;;;;44.70;12.60;;;5.50;99.90;;;;;;5069483;28;20068;-69
2023/11/12 06:22:43;;;;;;;35.72;12.40;;;4.60;99.90;;;;;;5070424;28;20142;-69
2023/11/12 06:25:12;;;;;;;27.27;13.15;;;4.60;99.90;;;;;;5064237;28;20033;-69
2023/11/12 06:27:39;;;;;;;50.90;13.15;;;4.60;99.90;;;;;;5068788;28;20040;-69
2023/11/12 06:30:05;;;;;;;65.38;13.30;;;4.60;99.90;;;;;;5068902;28;20131;-69
2023/11/12 06:32:31;;;;;;;50.85;13.40;;;4.60;99.90;;;;;;5068894;28;20486;-69
2023/11/12 06:34:56;;;;;;;41.75;13.18;;;4.60;99.90;;;;;;5068006;28;20036;-69
2023/11/12 06:37:22;;;;;;;55.58;13.77;;;4.60;99.90;;;;;;5066928;28;20090;-69
2023/11/12 06:39:47;;;;;;;36.75;13.15;;;4.60;99.90;;;;;;5066036;28;20453;-69
2023/11/12 06:42:13;;;;;;;35.28;12.43;;;4.60;99.90;;;;;;5069577;28;20560;-69
2023/11/12 06:44:39;;;;;;;41.70;13.18;;;4.60;99.90;;;;;;5064197;28;20043;-69
2023/11/12 06:47:05;;;;;;;38.13;12.75;;;4.60;99.90;;;;;;5067631;28;20471;-69
2023/11/12 06:49:31;;;;;;;38.35;13.50;;;4.60;99.90;;;;;;5067036;28;20662;-69
2023/11/12 06:51:58;;;;;;;31.38;14.15;;;4.60;99.90;;;;;;5068404;28;20047;-69
2023/11/12 06:54:24;;;;;;;21.83;13.68;;;4.60;99.90;;;;;;5065719;28;20037;-69
2023/11/12 06:56:50;;;;;;;29.45;13.57;;;4.60;99.90;;;;;;5066774;28;20063;-69
2023/11/12 06:59:16;;;;;;;29.73;14.68;;;4.60;99.90;;;;;;5066838;28;20040;-69
2023/11/12 07:01:41;;;;;;;39.97;14.07;;;4.70;99.90;;;;;;5066019;28;20120;-69
2023/11/12 07:04:10;;;;;;;28.90;13.73;;;4.70;99.90;;;;;;5064828;28;20075;-69
2023/11/12 07:06:35;;;;;;;22.75;13.63;;;4.70;99.90;;;;;;5067193;28;20055;-69
2023/11/12 07:09:02;;;;;;;30.58;14.27;;;4.70;99.90;;;;;;5064549;28;20052;-69
2023/11/12 07:11:28;;;;;;;38.60;14.35;;;4.70;99.90;;;;;;5068487;28;20040;-69
2023/11/12 07:13:54;;;;;;;27.63;14.98;;;4.70;99.90;;;;;;5065924;28;20049;-69
2023/11/12 07:16:20;;;;;;;34.83;15.25;;;4.80;99.90;;;;;;5061448;28;20048;-69
2023/11/12 07:18:46;;;;;;;20.17;13.52;;;4.80;99.90;;;;;;5063555;28;20037;-71
2023/11/12 07:21:12;;;;;;;22.13;14.27;;;4.90;99.90;;;;;;5066087;28;20127;-69
2023/11/12 07:23:38;;;;;;;28.40;16.15;;;4.90;99.90;;;;;;5067165;28;20059;-68
2023/11/12 07:26:04;;;;;;;24.88;15.05;;;4.90;99.90;;;;;;5086088;28;20125;-67
2023/11/12 07:28:30;;;;;;;28.95;15.43;;;5.00;99.90;;;;;;5064879;28;20177;-69
2023/11/12 07:30:56;;;;;;;38.15;15.63;;;5.00;99.90;;;;;;5066133;28;20120;-68
2023/11/12 07:33:21;;;;;;;38.58;15.75;;;5.00;99.90;;;;;;5061545;28;20044;-70
2023/11/12 07:35:49;;;;;;;41.63;15.35;;;5.10;99.90;;;;;;5095795;28;20880;-69
2023/11/12 07:38:15;;;;;;;44.65;16.55;;;5.10;99.90;;;;;;5061963;28;20418;-70
2023/11/12 07:40:43;;;;;;;45.00;15.93;;;5.10;99.90;;;;;;5066529;28;20045;-68
2023/11/12 07:43:08;;;;;;;52.40;14.85;;;5.10;99.90;;;;;;5069375;28;20486;-68
2023/11/12 07:45:34;;;;;;;36.88;14.27;;;5.10;99.90;;;;;;5066200;28;20038;-68
2023/11/12 07:48:00;;;;;;;32.35;13.15;;;5.00;99.90;;;;;;5068530;28;20040;-68
2023/11/12 07:50:26;;;;;;;44.20;14.20;;;5.40;99.90;;;;;;5068273;28;20072;-68
2023/11/12 07:52:51;;;;;;;25.20;14.77;;;5.00;99.90;;;;;;5065824;28;20052;-68
2023/11/12 07:55:17;;;;;;;38.85;14.05;;;5.10;99.90;;;;;;5065858;28;20398;-68
2023/11/12 07:57:43;;;;;;;37.10;14.02;;;5.10;99.90;;;;;;5066600;28;20510;-68
2023/11/12 08:00:12;;;;;;;52.83;14.35;;;5.10;99.90;;;;;;5063076;28;20123;-68
2023/11/12 08:02:39;;;;;;;40.00;14.43;;;5.10;99.90;;;;;;5065199;28;20043;-68
2023/11/12 08:05:08;;;;;;;44.67;13.98;;;5.10;99.90;;;;;;5098420;28;20045;-68
2023/11/12 08:07:34;;;;;;;42.88;14.55;;;5.00;99.90;;;;;;5063116;28;20561;-68
2023/11/12 08:10:04;;;;;;;40.63;13.85;;;5.10;99.90;;;;;;5067889;28;20136;-68
2023/11/12 08:12:29;;;;;;;28.92;14.23;;;5.10;99.90;;;;;;5067914;28;20067;-68
2023/11/12 08:14:55;;;;;;;21.23;14.00;;;5.00;99.90;;;;;;5070684;28;20032;-68
2023/11/12 08:17:21;;;;;;;25.58;14.98;;;5.10;99.90;;;;;;5071262;28;20040;-68
2023/11/12 08:19:46;;;;;;;31.58;14.90;;;5.10;99.90;;;;;;5068822;28;20047;-68
2023/11/12 08:22:12;;;;;;;27.40;15.05;;;5.20;99.90;;;;;;5066645;28;20090;-68
2023/11/12 08:24:37;;;;;;;32.25;14.10;;;5.20;99.90;;;;;;5070000;28;20241;-68
2023/11/12 08:27:04;;;;;;;49.03;15.32;;;5.30;99.90;;;;;;5070785;28;20046;-68
2023/11/12 08:29:31;;;;;;;37.45;15.80;;;5.40;99.90;;;;;;5068682;28;20054;-68
2023/11/12 08:31:57;;;;;;;32.90;14.75;;;5.40;99.90;;;;;;5100794;27;20052;-68
2023/11/12 08:34:23;;;;;;;21.42;15.88;;;5.50;99.90;;;;;;5069543;28;20127;-68
2023/11/12 08:36:52;;;;;;;20.52;16.38;;;5.60;99.90;;;;;;5054740;28;20127;-68
2023/11/12 08:39:18;;;;;;;21.45;16.02;;;5.60;99.90;;;;;;5100076;28;20050;-68
2023/11/12 08:41:48;;;;;;;20.05;15.20;;;5.60;99.90;;;;;;5070010;28;20090;-68
2023/11/12 08:44:13;;;;;;;22.30;14.43;;;5.60;99.90;;;;;;5069639;28;20364;-68
2023/11/12 08:46:40;;;;;;;24.85;15.27;;;5.70;99.90;;;;;;5069089;28;20048;-68
2023/11/12 08:49:06;;;;;;;20.90;16.63;;;5.70;99.90;;;;;;5070157;28;20036;-68
2023/11/12 08:51:35;;;;;;;20.90;15.25;;;5.70;99.90;;;;;;5069446;28;20414;-68
2023/11/12 08:54:01;;;;;;;21.42;15.90;;;5.80;99.90;;;;;;5069322;28;20638;-68
2023/11/12 08:56:29;;;;;;;21.80;16.38;;;5.90;99.90;;;;;;5069986;28;20476;-68
2023/11/12 08:58:56;;;;;;;18.38;16.13;;;6.00;99.90;;;;;;5065345;28;20068;-68
2023/11/12 09:01:21;;;;;;;26.02;15.85;;;6.00;99.90;;;;;;5067899;28;20052;-68
2023/11/12 09:03:47;;;;;;;20.23;16.05;;;6.20;99.90;;;;;;5068140;28;20032;-68
2023/11/12 09:06:13;;;;;;;18.73;15.43;;;6.20;99.90;;;;;;5069353;28;20048;-68
2023/11/12 09:08:38;;;;;;;20.88;14.88;;;6.30;99.90;;;;;;5046858;28;20115;-68
2023/11/12 09:11:05;;;;;;;20.23;15.55;;;6.30;99.90;;;;;;5069683;28;20080;-68
2023/11/12 09:13:31;;;;;;;19.50;14.80;;;6.60;99.90;;;;;;5066163;28;20064;-68
2023/11/12 09:15:57;;;;;;;16.05;14.32;;;6.40;99.90;;;;;;5064086;28;20067;-68
2023/11/12 09:18:24;;;;;;;23.95;15.25;;;6.50;99.90;;;;;;5070002;28;20363;-68
2023/11/12 09:20:53;;;;;;;39.42;15.23;;;7.60;99.90;;;;;;5066005;28;20041;-68
2023/11/12 09:23:19;;;;;;;20.20;14.52;;;6.60;99.90;;;;;;5069088;28;20128;-68
2023/11/12 09:25:45;;;;;;;19.92;13.40;;;6.70;99.90;;;;;;5068833;28;20563;-68
2023/11/12 09:28:11;;;;;;;16.88;13.45;;;6.70;99.90;;;;;;5071136;28;20123;-68
2023/11/12 09:30:37;;;;;;;14.05;12.60;;;6.60;99.90;;;;;;5069745;28;20040;-68
2023/11/12 09:33:06;;;;;;;15.40;12.02;;;6.60;99.90;;;;;;5065948;28;20449;-68
2023/11/12 09:35:31;;;;;;;12.98;11.75;;;6.60;99.90;;;;;;5066625;28;20127;-68
2023/11/12 09:37:57;;;;;;;14.30;12.48;;;6.60;99.90;;;;;;5069023;28;20460;-68
2023/11/12 09:40:23;;;;;;;14.13;12.77;;;6.70;99.90;;;;;;5068446;28;20048;-68
2023/11/12 09:42:53;;;;;;;13.00;11.68;;;6.70;99.90;;;;;;5068908;28;20041;-68
2023/11/12 09:45:19;;;;;;;13.25;11.80;;;6.80;99.90;;;;;;5067050;28;20502;-68
2023/11/12 09:47:54;;;;;;;13.07;11.82;;;6.80;99.90;;;;;;5065438;28;20053;-68
2023/11/12 09:50:25;;;;;;;12.00;10.90;;;6.80;99.90;;;;;;5068040;28;20044;-68
2023/11/12 09:52:52;;;;;;;13.70;11.55;;;6.90;99.90;;;;;;5067018;28;20040;-68
2023/11/12 09:55:19;;;;;;;12.73;11.52;;;6.90;99.90;;;;;;5062349;28;20040;-68
2023/11/12 09:57:46;;;;;;;12.55;11.35;;;6.90;99.90;;;;;;5070444;28;20167;-68
2023/11/12 10:00:16;;;;;;;14.77;11.20;;;6.90;99.90;;;;;;5070088;28;20521;-68
2023/11/12 10:02:46;;;;;;;12.77;11.57;;;7.00;99.90;;;;;;5101561;28;20047;-68
2023/11/12 10:05:13;;;;;;;11.50;10.35;;;7.00;99.90;;;;;;5098113;28;20546;-68
2023/11/12 10:07:39;;;;;;;13.05;10.98;;;7.10;99.90;;;;;;5068079;28;20931;-68
2023/11/12 10:10:26;;;;;;;11.25;10.15;;;7.00;99.90;;;;;;5067748;28;20049;-68
2023/11/12 10:12:55;;;;;;;12.48;11.18;;;7.00;99.90;;;;;;5068419;28;20387;-68
2023/11/12 10:15:25;;;;;;;12.98;11.60;;;7.10;99.90;;;;;;5067817;28;20055;-68
2023/11/12 10:17:52;;;;;;;14.02;11.70;;;7.10;99.90;;;;;;5068165;28;20044;-68
2023/11/12 10:20:22;;;;;;;14.27;12.00;;;7.20;99.90;;;;;;5070289;28;20036;-68
2023/11/12 10:22:49;;;;;;;13.30;11.90;;;7.20;99.90;;;;;;5069978;28;20390;-68
2023/11/12 10:25:35;;;;;;;14.02;12.18;;;7.20;99.90;;;;;;5069369;28;20051;-68
2023/11/12 10:28:01;;;;;;;;;;;7.20;99.90;;;;;;5068753;28;20040;-68
2023/11/12 10:30:26;;;;;;;12.93;11.48;;;7.20;99.90;;;;;;5067010;28;19927;-68
2023/11/12 10:32:52;;;;;;;12.90;11.60;;;7.20;99.90;;;;;;5067449;28;20044;-68
2023/11/12 10:35:28;;;;;;;13.60;12.20;;;7.20;99.90;;;;;;5069115;28;20131;-68
2023/11/12 10:38:01;;;;;;;14.50;13.00;;;7.30;99.90;;;;;;5069700;28;20048;-68
2023/11/12 10:40:27;;;;;;;15.50;13.27;;;7.20;99.90;;;;;;5068420;28;20040;-68
2023/11/12 10:42:58;;;;;;;16.77;15.00;;;7.20;99.90;;;;;;5069299;28;20032;-68
2023/11/12 10:45:29;;;;;;;16.50;14.13;;;7.20;99.90;;;;;;5066687;28;20047;-68
2023/11/12 10:47:56;;;;;;;16.92;15.15;;;7.30;99.90;;;;;;5070539;28;20041;-68
2023/11/12 10:50:25;;;;;;;17.08;15.38;;;7.40;99.90;;;;;;5069178;28;20505;-68
2023/11/12 10:52:53;;;;;;;18.45;15.98;;;7.40;99.90;;;;;;5066052;28;20036;-68
2023/11/12 10:55:22;;;;;;;19.92;16.02;;;7.60;99.90;;;;;;5067971;28;20210;-68
2023/11/12 10:57:50;;;;;;;19.67;17.58;;;7.70;99.90;;;;;;5068794;28;20118;-68
2023/11/12 11:00:19;;;;;;;19.92;17.17;;;7.70;99.90;;;;;;5066956;28;20469;-68
2023/11/12 11:02:47;;;;;;;19.65;17.55;;;7.70;99.90;;;;;;5067221;28;20496;-68
2023/11/12 11:05:13;;;;;;;18.73;16.30;;;7.60;99.90;;;;;;5067207;28;20029;-68
2023/11/12 11:07:39;;;;;;;17.25;15.40;;;7.70;99.90;;;;;;5067876;28;20047;-68
2023/11/12 11:10:06;;;;;;;16.20;14.57;;;7.70;99.90;;;;;;5066820;28;20040;-68
2023/11/12 11:12:33;;;;;;;17.45;14.07;;;7.70;99.90;;;;;;5069911;28;20045;-68
2023/11/12 11:15:36;;;;;;;17.55;14.93;;;7.70;99.90;;;;;;5068668;28;20525;-68
2023/11/12 11:18:03;;;;;;;17.50;15.40;;;7.70;99.90;;;;;;5061252;28;20111;-68
2023/11/12 11:21:14;;;;;;;20.50;16.73;;;7.80;99.90;;;;;;5065800;28;20047;-68
2023/11/12 11:23:54;;;;;;;19.73;16.08;;;7.80;99.90;;;;;;5066579;28;20043;-68
2023/11/12 11:26:32;;;;;;;20.38;18.13;;;7.90;99.90;;;;;;5068542;28;20127;-68
2023/11/12 11:29:10;;;;;;;22.70;18.33;;;8.00;99.90;;;;;;5067474;28;20460;-68
2023/11/12 11:31:42;;;;;;;19.90;17.83;;;8.10;99.90;;;;;;5069680;28;20040;-68
2023/11/12 11:34:10;;;;;;;19.33;17.33;;;8.00;99.90;;;;;;5083449;28;20513;-68
2023/11/12 11:36:37;;;;;;;20.50;17.20;;;8.20;99.90;;;;;;5070764;28;20391;-68
2023/11/12 11:39:06;;;;;;;20.38;17.63;;;8.00;99.90;;;;;;5082513;28;20041;-68
2023/11/12 11:41:35;;;;;;;20.02;17.77;;;8.00;99.90;;;;;;5066905;28;20411;-68
2023/11/12 11:44:35;;;;;;;20.50;17.80;;;8.10;99.90;;;;;;5064983;28;20028;-68
2023/11/12 11:47:11;;;;;;;21.40;18.10;;;8.10;99.90;;;;;;5062769;28;20460;-68
2023/11/12 11:49:38;;;;;;;20.52;16.80;;;8.10;99.90;;;;;;5079910;28;20066;-68
2023/11/12 11:52:06;;;;;;;18.73;16.63;;;8.10;99.90;;;;;;5067440;28;20059;-68
2023/11/12 11:54:32;;;;;;;20.95;17.10;;;8.10;99.90;;;;;;5065729;28;20056;-68
2023/11/12 11:56:58;;;;;;;18.25;16.40;;;8.10;99.90;;;;;;5065151;28;20057;-68
2023/11/12 11:59:25;;;;;;;21.25;17.23;;;8.10;99.90;;;;;;5065453;28;20387;-68
2023/11/12 12:01:53;;;;;;;18.98;16.95;;;8.20;99.90;;;;;;5061762;28;20052;-68
2023/11/12 12:04:19;;;;;;;18.45;16.25;;;8.10;99.90;;;;;;5066065;28;20079;-68
2023/11/12 12:06:46;;;;;;;18.25;16.45;;;8.20;99.90;;;;;;5096598;28;20526;-68
2023/11/12 12:09:17;;;;;;;19.55;16.77;;;8.30;99.90;;;;;;5098527;28;20338;-68
2023/11/12 12:11:47;;;;;;;22.42;17.08;;;8.20;99.90;;;;;;5065734;28;20037;-68
2023/11/12 12:14:15;;;;;;;19.75;17.52;;;8.20;99.90;;;;;;5055903;28;20479;-68
2023/11/12 12:16:42;;;;;;;22.58;17.13;;;8.30;99.90;;;;;;5066223;28;20376;-68
2023/11/12 12:19:13;;;;;;;18.90;16.90;;;8.30;99.90;;;;;;5067521;28;20048;-68
2023/11/12 12:21:47;;;;;;;20.23;18.15;;;8.30;99.90;;;;;;5066484;28;20123;-68
2023/11/12 12:24:12;;;;;;;18.85;16.45;;;8.40;99.90;;;;;;5066207;28;20052;-68
2023/11/12 12:26:39;;;;;;;19.33;16.60;;;8.40;99.90;;;;;;5064210;28;20037;-68
2023/11/12 12:29:20;;;;;;;21.95;18.20;;;8.30;99.90;;;;;;5063438;28;20479;-68
2023/11/12 12:31:48;;;;;;;18.30;16.30;;;8.60;99.90;;;;;;5065368;28;20047;-68
2023/11/12 12:34:16;;;;;;;20.30;18.20;;;8.40;99.90;;;;;;5066741;28;20114;-68
2023/11/12 12:37:07;;;;;;;18.58;16.67;;;8.40;99.90;;;;;;5068123;28;20036;-68
2023/11/12 12:39:56;;;;;;;18.45;16.55;;;8.40;99.90;;;;;;5064759;28;20131;-68